createdAt,value
2023-11-23T00:00:33.037Z,16.15
2023-11-23T00:03:00.762Z,15.75
2023-11-23T00:05:29.917Z,15.57
2023-11-23T00:07:57.201Z,15.48
2023-11-23T00:10:24.321Z,14.40
2023-11-23T00:12:51.487Z,14.82
2023-11-23T00:15:18.707Z,15.25
2023-11-23T00:17:45.999Z,16.92
2023-11-23T00:20:13.410Z,16.02
2023-11-23T00:22:40.503Z,16.95
2023-11-23T00:25:13.087Z,16.15
2023-11-23T00:27:40.341Z,16.48
2023-11-23T00:30:08.302Z,15.73
2023-11-23T00:32:35.490Z,15.45
2023-11-23T00:35:02.834Z,15.45
2023-11-23T00:37:30.113Z,15.73
2023-11-23T00:39:57.250Z,14.70
2023-11-23T00:42:25.795Z,14.13
2023-11-23T00:44:53.068Z,13.35
2023-11-23T00:47:21.259Z,14.38
2023-11-23T00:49:48.521Z,14.82
2023-11-23T00:52:16.190Z,13.60
2023-11-23T00:54:43.545Z,15.57
2023-11-23T00:57:10.799Z,15.45
2023-11-23T00:59:38.007Z,15.18
2023-11-23T01:02:06.706Z,16.58
2023-11-23T01:04:34.018Z,15.05
2023-11-23T01:07:02.012Z,16.13
2023-11-23T01:09:29.161Z,14.88
2023-11-23T01:11:56.405Z,15.60
2023-11-23T01:14:23.596Z,14.82
2023-11-23T01:16:50.772Z,16.15
2023-11-23T01:19:17.986Z,15.52
2023-11-23T01:21:45.295Z,15.25
2023-11-23T01:24:12.991Z,14.65
2023-11-23T01:26:41.481Z,15.20
2023-11-23T01:29:08.633Z,14.93
2023-11-23T01:31:35.944Z,15.02
2023-11-23T01:34:03.251Z,13.20
2023-11-23T01:36:30.472Z,13.65
2023-11-23T01:38:57.618Z,13.25
2023-11-23T01:41:24.762Z,14.48
2023-11-23T01:43:52.755Z,15.30
2023-11-23T01:46:19.952Z,11.98
2023-11-23T01:48:47.599Z,13.80
2023-11-23T01:51:15.846Z,14.27
2023-11-23T01:53:43.351Z,13.98
2023-11-23T01:56:11.740Z,11.73
2023-11-23T01:58:38.999Z,13.60
2023-11-23T02:01:06.553Z,14.15
2023-11-23T02:03:34.503Z,14.70
2023-11-23T02:06:01.979Z,15.93
2023-11-23T02:08:29.122Z,15.68
2023-11-23T02:10:56.369Z,15.85
2023-11-23T02:13:23.760Z,14.80
2023-11-23T02:15:51.040Z,15.00
2023-11-23T02:18:18.643Z,15.23
2023-11-23T02:20:47.927Z,17.92
2023-11-23T02:23:15.158Z,18.38
2023-11-23T02:25:43.478Z,18.33
2023-11-23T02:28:10.738Z,17.50
2023-11-23T02:30:37.916Z,19.75
2023-11-23T02:33:05.424Z,18.35
2023-11-23T02:35:32.984Z,18.73
2023-11-23T02:38:00.270Z,18.70
2023-11-23T02:40:27.466Z,19.05
2023-11-23T02:42:54.643Z,18.00
2023-11-23T02:45:22.226Z,17.73
2023-11-23T02:47:50.606Z,16.77
2023-11-23T02:50:18.271Z,17.38
2023-11-23T02:53:07.152Z,17.38
2023-11-23T02:55:34.519Z,15.35
2023-11-23T02:58:02.057Z,16.35
2023-11-23T03:00:29.608Z,17.33
2023-11-23T03:02:56.815Z,17.33
2023-11-23T03:05:24.033Z,16.77
2023-11-23T03:07:51.217Z,16.58
2023-11-23T03:10:18.435Z,17.60
2023-11-23T03:12:45.553Z,17.63
2023-11-23T03:15:12.782Z,17.00
2023-11-23T03:17:40.102Z,17.27
2023-11-23T03:20:07.548Z,17.02
2023-11-23T03:22:34.670Z,17.65
2023-11-23T03:25:01.854Z,16.02
2023-11-23T03:27:29.036Z,16.17
2023-11-23T03:29:56.214Z,15.65
2023-11-23T03:32:26.442Z,17.65
2023-11-23T03:34:53.676Z,17.10
2023-11-23T03:37:20.825Z,17.08
2023-11-23T03:39:48.074Z,16.20
2023-11-23T03:42:15.299Z,16.35
2023-11-23T03:44:42.517Z,17.70
2023-11-23T03:47:09.709Z,18.70
2023-11-23T03:49:36.908Z,18.95
2023-11-23T03:52:04.140Z,16.73
2023-11-23T03:54:31.259Z,16.77
2023-11-23T03:56:59.711Z,16.85
2023-11-23T03:59:26.930Z,17.20
2023-11-23T04:01:54.131Z,17.92
2023-11-23T04:04:21.425Z,18.10
2023-11-23T04:06:48.793Z,16.92
2023-11-23T04:09:19.014Z,18.13
2023-11-23T04:11:46.245Z,17.80
2023-11-23T04:14:13.459Z,19.20
2023-11-23T04:16:40.713Z,18.92
2023-11-23T04:19:07.922Z,18.88
2023-11-23T04:21:35.084Z,19.50
2023-11-23T04:24:02.278Z,18.35
2023-11-23T04:26:29.454Z,17.45
2023-11-23T04:28:56.586Z,18.85
2023-11-23T04:31:23.698Z,19.60
2023-11-23T04:33:50.946Z,20.25
2023-11-23T04:36:18.371Z,20.30
2023-11-23T04:38:45.524Z,22.05
2023-11-23T04:41:13.486Z,20.92
2023-11-23T04:43:40.720Z,20.17
2023-11-23T04:46:07.567Z,21.20
2023-11-23T04:48:34.342Z,22.17
2023-11-23T04:51:01.136Z,20.95
2023-11-23T04:53:27.872Z,19.42
2023-11-23T04:55:55.186Z,21.08
2023-11-23T04:58:25.422Z,18.42
2023-11-23T05:00:53.129Z,19.27
2023-11-23T05:03:21.517Z,19.08
2023-11-23T05:05:48.908Z,19.75
2023-11-23T05:08:16.143Z,19.60
2023-11-23T05:10:44.317Z,18.98
2023-11-23T05:13:12.058Z,18.58
2023-11-23T05:15:39.222Z,19.83
2023-11-23T05:18:06.523Z,18.00
2023-11-23T05:20:36.713Z,16.80
2023-11-23T05:23:03.888Z,17.30
2023-11-23T05:25:31.371Z,18.95
2023-11-23T05:27:58.585Z,17.33
2023-11-23T05:30:25.822Z,17.38
2023-11-23T05:32:53.144Z,17.27
2023-11-23T05:35:20.439Z,17.67
2023-11-23T05:37:47.576Z,17.98
2023-11-23T05:40:17.245Z,17.58
2023-11-23T05:42:54.116Z,17.45
2023-11-23T05:45:28.660Z,16.65
2023-11-23T05:47:56.345Z,17.48
2023-11-23T05:50:23.567Z,18.17
2023-11-23T05:52:50.725Z,18.00
2023-11-23T05:55:17.894Z,17.48
2023-11-23T05:57:45.106Z,17.58
2023-11-23T06:00:12.672Z,17.63
2023-11-23T06:02:42.301Z,17.48
2023-11-23T06:05:10.049Z,18.17
2023-11-23T06:07:37.327Z,17.70
2023-11-23T06:10:06.266Z,16.17
2023-11-23T06:12:33.605Z,18.05
2023-11-23T06:15:01.127Z,16.35
2023-11-23T06:17:30.246Z,15.52
2023-11-23T06:19:57.380Z,16.20
2023-11-23T06:22:24.574Z,14.93
2023-11-23T06:24:51.984Z,16.23
2023-11-23T06:27:19.752Z,14.65
2023-11-23T06:29:46.950Z,14.30
2023-11-23T06:32:14.179Z,15.60
2023-11-23T06:34:41.692Z,15.38
2023-11-23T06:37:08.880Z,15.40
2023-11-23T06:39:39.115Z,15.48
2023-11-23T06:42:06.347Z,16.15
2023-11-23T06:44:33.550Z,16.10
2023-11-23T06:47:01.724Z,18.98
2023-11-23T06:49:28.940Z,22.40
2023-11-23T06:51:56.286Z,21.90
2023-11-23T06:54:23.647Z,16.13
2023-11-23T06:56:50.827Z,15.05
2023-11-23T06:59:19.803Z,15.98
2023-11-23T07:01:47.058Z,15.65
2023-11-23T07:04:15.141Z,15.32
2023-11-23T07:06:42.634Z,14.68
2023-11-23T07:09:11.557Z,12.77
2023-11-23T07:11:39.880Z,12.38
2023-11-23T07:14:07.271Z,11.70
2023-11-23T07:16:35.016Z,11.63
2023-11-23T07:19:02.245Z,10.65
2023-11-23T07:21:29.739Z,10.27
2023-11-23T07:23:57.413Z,9.60
2023-11-23T07:26:25.220Z,9.00
2023-11-23T07:28:52.666Z,10.77
2023-11-23T07:31:20.002Z,11.50
2023-11-23T07:33:47.356Z,11.55
2023-11-23T07:36:15.022Z,9.43
2023-11-23T07:38:44.552Z,11.45
2023-11-23T07:41:12.390Z,13.30
2023-11-23T07:43:39.543Z,12.88
2023-11-23T07:46:06.847Z,15.52
2023-11-23T07:48:34.358Z,12.90
2023-11-23T07:51:01.715Z,12.43
2023-11-23T07:53:31.680Z,12.90
2023-11-23T07:55:59.243Z,10.68
2023-11-23T07:58:26.704Z,10.70
2023-11-23T08:00:54.070Z,9.68
2023-11-23T08:03:22.466Z,9.65
2023-11-23T08:05:49.682Z,8.35
2023-11-23T08:08:16.866Z,8.43
2023-11-23T08:10:44.069Z,8.50
2023-11-23T08:13:11.229Z,8.95
2023-11-23T08:15:38.491Z,11.90
2023-11-23T08:18:08.335Z,10.00
2023-11-23T08:20:37.862Z,9.73
2023-11-23T08:23:05.810Z,9.30
2023-11-23T08:25:32.957Z,9.30
2023-11-23T08:28:00.121Z,12.23
2023-11-23T08:30:27.344Z,9.02
2023-11-23T08:32:54.703Z,8.70
2023-11-23T08:35:21.861Z,9.57
2023-11-23T08:37:49.436Z,8.60
2023-11-23T08:40:16.668Z,7.55
2023-11-23T08:42:43.828Z,5.75
2023-11-23T08:45:11.175Z,5.43
2023-11-23T08:47:38.507Z,5.80
2023-11-23T08:50:07.150Z,6.20
2023-11-23T08:52:34.327Z,8.73
2023-11-23T08:55:01.458Z,10.65
2023-11-23T08:57:29.606Z,7.88
2023-11-23T08:59:57.013Z,8.27
2023-11-23T09:02:24.222Z,10.80
2023-11-23T09:04:52.345Z,10.07
2023-11-23T09:07:21.264Z,7.82
2023-11-23T09:09:48.579Z,7.75
2023-11-23T09:12:15.802Z,8.85
2023-11-23T09:14:49.063Z,8.88
2023-11-23T09:17:18.359Z,7.95
2023-11-23T09:19:45.709Z,11.55
2023-11-23T09:22:13.478Z,10.02
2023-11-23T09:24:40.746Z,8.75
2023-11-23T09:27:08.028Z,8.38
2023-11-23T09:29:35.729Z,8.13
2023-11-23T09:32:04.370Z,8.23
2023-11-23T09:34:31.732Z,9.18
2023-11-23T09:36:59.342Z,8.43
2023-11-23T09:39:26.560Z,7.80
2023-11-23T09:41:55.042Z,9.27
2023-11-23T09:44:22.955Z,7.13
2023-11-23T09:46:51.217Z,8.05
2023-11-23T09:49:19.827Z,7.78
2023-11-23T09:51:48.913Z,8.55
2023-11-23T09:54:19.221Z,11.25
2023-11-23T09:56:46.866Z,9.52
2023-11-23T09:59:14.035Z,7.97
2023-11-23T10:01:49.535Z,8.95
2023-11-23T10:04:17.048Z,9.85
2023-11-23T10:06:44.445Z,8.55
2023-11-23T10:09:16.399Z,8.27
2023-11-23T10:11:44.018Z,8.93
2023-11-23T10:14:12.665Z,9.07
2023-11-23T10:16:39.846Z,10.93
2023-11-23T10:19:07.217Z,11.98
2023-11-23T10:21:35.437Z,11.10
2023-11-23T10:24:08.837Z,11.23
2023-11-23T10:26:36.192Z,10.20
2023-11-23T10:29:04.775Z,10.85
2023-11-23T10:31:32.084Z,9.05
2023-11-23T10:34:00.495Z,10.82
2023-11-23T10:36:28.379Z,15.98
2023-11-23T10:39:01.084Z,9.70
2023-11-23T10:41:28.403Z,9.10
2023-11-23T10:43:55.926Z,9.02
2023-11-23T10:46:24.764Z,9.13
2023-11-23T10:48:52.194Z,8.60
2023-11-23T10:51:19.665Z,8.00
2023-11-23T10:53:47.258Z,8.02
2023-11-23T10:56:19.741Z,8.88
2023-11-23T10:58:48.189Z,9.07
2023-11-23T11:01:22.651Z,7.75
2023-11-23T11:03:50.560Z,6.80
2023-11-23T11:06:27.211Z,7.93
2023-11-23T11:08:54.422Z,8.60
2023-11-23T11:11:22.615Z,9.65
2023-11-23T11:13:49.923Z,15.35
2023-11-23T11:16:18.639Z,9.25
2023-11-23T11:18:53.078Z,21.10
2023-11-23T11:21:22.038Z,21.20
2023-11-23T11:23:51.195Z,10.65
2023-11-23T11:26:19.653Z,10.88
2023-11-23T11:29:07.960Z,9.40
2023-11-23T11:31:37.401Z,11.95
2023-11-23T11:34:23.466Z,12.63
2023-11-23T11:37:03.364Z,9.20
2023-11-23T11:39:42.814Z,6.38
2023-11-23T11:42:15.345Z,8.77
2023-11-23T11:47:09.757Z,6.65
2023-11-23T11:49:38.086Z,6.80
2023-11-23T11:52:08.488Z,6.55
2023-11-23T11:54:39.226Z,6.03
2023-11-23T11:57:06.502Z,5.93
2023-11-23T11:59:37.141Z,7.00
2023-11-23T12:02:06.401Z,6.15
2023-11-23T12:04:36.804Z,6.07
2023-11-23T12:07:04.305Z,5.68
2023-11-23T12:09:38.609Z,5.93
2023-11-23T12:12:11.924Z,6.07
2023-11-23T12:14:39.311Z,5.70
2023-11-23T12:17:14.336Z,6.20
2023-11-23T12:19:56.203Z,6.15
2023-11-23T12:22:24.704Z,6.67
2023-11-23T12:24:52.467Z,6.30
2023-11-23T12:27:22.151Z,5.85
2023-11-23T12:29:50.466Z,7.22
2023-11-23T12:32:18.231Z,5.05
2023-11-23T12:34:45.555Z,5.72
2023-11-23T12:37:12.782Z,6.10
2023-11-23T12:39:40.380Z,6.03
2023-11-23T12:42:07.749Z,5.00
2023-11-23T12:44:36.546Z,4.32
2023-11-23T12:47:04.409Z,3.83
2023-11-23T12:49:31.649Z,4.20
2023-11-23T12:51:59.690Z,3.92
2023-11-23T12:54:26.908Z,4.90
2023-11-23T12:56:54.277Z,4.50
2023-11-23T12:59:21.599Z,7.10
2023-11-23T13:01:48.716Z,5.03
2023-11-23T13:04:20.417Z,4.82
2023-11-23T13:06:48.079Z,3.72
2023-11-23T13:09:19.847Z,4.00
2023-11-23T13:11:49.090Z,4.00
2023-11-23T13:14:16.790Z,3.30
2023-11-23T13:16:45.885Z,3.95
2023-11-23T13:19:26.086Z,3.78
2023-11-23T13:21:57.848Z,3.90
2023-11-23T13:24:25.742Z,4.03
2023-11-23T13:26:52.907Z,4.28
2023-11-23T13:29:21.543Z,4.13
2023-11-23T13:31:50.818Z,3.88
2023-11-23T13:34:20.190Z,3.92
2023-11-23T13:36:47.361Z,4.35
2023-11-23T13:39:15.841Z,7.60
2023-11-23T13:41:43.147Z,7.00
2023-11-23T13:44:12.001Z,6.95
2023-11-23T13:46:39.426Z,3.80
2023-11-23T13:49:08.698Z,5.72
2023-11-23T13:51:36.061Z,5.35
2023-11-23T13:54:05.432Z,3.97
2023-11-23T13:56:32.848Z,4.07
2023-11-23T13:59:00.461Z,4.60
2023-11-23T14:01:27.828Z,4.15
2023-11-23T14:03:55.170Z,3.90
2023-11-23T14:06:23.294Z,3.72
2023-11-23T14:08:51.232Z,5.40
2023-11-23T14:11:20.703Z,4.18
2023-11-23T14:13:51.495Z,6.00
2023-11-23T14:16:18.727Z,5.45
2023-11-23T14:18:46.066Z,4.30
2023-11-23T14:21:13.520Z,4.93
2023-11-23T14:23:41.037Z,5.70
2023-11-23T14:26:11.767Z,5.10
2023-11-23T14:28:38.962Z,5.38
2023-11-23T14:31:08.137Z,5.30
2023-11-23T14:33:35.614Z,5.57
2023-11-23T14:36:02.955Z,6.43
2023-11-23T14:38:30.256Z,5.63
2023-11-23T14:40:58.841Z,4.95
2023-11-23T14:43:28.884Z,5.63
2023-11-23T14:45:57.507Z,4.97
2023-11-23T14:48:25.050Z,5.35
2023-11-23T14:50:52.286Z,5.10
2023-11-23T14:53:19.487Z,7.05
2023-11-23T14:55:47.599Z,6.68
2023-11-23T14:58:15.103Z,4.88
2023-11-23T15:00:43.654Z,3.90
2023-11-23T15:03:11.398Z,2.90
2023-11-23T15:05:38.686Z,3.25
2023-11-23T15:08:06.083Z,3.70
2023-11-23T15:10:33.718Z,3.50
2023-11-23T15:13:00.872Z,2.63
2023-11-23T15:15:31.564Z,2.80
2023-11-23T15:18:01.096Z,1.92
2023-11-23T15:20:31.385Z,1.55
2023-11-23T15:22:59.263Z,2.33
2023-11-23T15:25:27.447Z,1.08
2023-11-23T15:27:55.891Z,1.20
2023-11-23T15:30:23.423Z,1.45
2023-11-23T15:32:54.737Z,1.60
2023-11-23T15:35:26.336Z,0.98
2023-11-23T15:37:54.582Z,0.80
2023-11-23T15:40:21.797Z,1.05
2023-11-23T15:42:49.284Z,1.10
2023-11-23T15:45:18.698Z,0.82
2023-11-23T15:47:45.999Z,1.38
2023-11-23T15:50:13.197Z,0.90
2023-11-23T15:52:40.557Z,0.80
2023-11-23T15:55:10.235Z,1.00
2023-11-23T15:57:37.999Z,1.38
2023-11-23T16:00:07.919Z,0.80
2023-11-23T16:02:39.375Z,1.48
2023-11-23T16:05:06.920Z,1.70
2023-11-23T16:07:34.097Z,1.25
2023-11-23T16:10:01.278Z,2.47
2023-11-23T16:12:28.520Z,2.03
2023-11-23T16:14:57.896Z,2.47
2023-11-23T16:17:26.097Z,2.55
2023-11-23T16:19:54.441Z,3.00
2023-11-23T16:22:21.997Z,2.30
2023-11-23T16:24:49.373Z,2.00
2023-11-23T16:27:16.820Z,2.15
2023-11-23T16:29:44.769Z,2.08
2023-11-23T16:32:12.139Z,1.60
2023-11-23T16:34:41.176Z,2.10
2023-11-23T16:37:11.414Z,2.60
2023-11-23T16:39:39.450Z,2.72
2023-11-23T16:42:06.834Z,1.60
2023-11-23T16:44:34.144Z,2.00
2023-11-23T16:47:01.511Z,3.00
2023-11-23T16:49:28.988Z,2.40
2023-11-23T16:51:56.440Z,2.70
2023-11-23T16:54:23.715Z,4.80
2023-11-23T16:56:52.187Z,3.38
2023-11-23T16:59:19.535Z,2.55
2023-11-23T17:01:47.192Z,2.50
2023-11-23T17:04:14.903Z,3.15
2023-11-23T17:06:43.282Z,2.47
2023-11-23T17:09:11.363Z,2.10
2023-11-23T17:11:38.786Z,2.20
2023-11-23T17:14:07.469Z,1.80
2023-11-23T17:16:36.549Z,1.52
2023-11-23T17:19:03.695Z,1.50
2023-11-23T17:21:31.565Z,1.90
2023-11-23T17:23:59.171Z,1.73
2023-11-23T17:26:26.319Z,1.63
2023-11-23T17:28:55.654Z,1.95
2023-11-23T17:31:22.871Z,1.75
2023-11-23T17:33:50.250Z,3.10
2023-11-23T17:36:17.831Z,1.20
2023-11-23T17:38:45.678Z,1.52
2023-11-23T17:41:17.237Z,4.38
2023-11-23T17:43:47.851Z,1.92
2023-11-23T17:46:15.393Z,6.30
2023-11-23T17:48:42.744Z,5.82
2023-11-23T17:51:12.895Z,5.63
2023-11-23T17:53:41.313Z,3.20
2023-11-23T17:56:10.698Z,2.50
2023-11-23T17:58:38.042Z,4.30
2023-11-23T18:01:06.604Z,2.38
2023-11-23T18:03:34.982Z,2.70
2023-11-23T18:06:02.490Z,3.65
2023-11-23T18:08:29.725Z,3.72
2023-11-23T18:10:59.819Z,2.10
2023-11-23T18:13:30.159Z,2.55
2023-11-23T18:15:57.717Z,2.38
2023-11-23T18:18:25.128Z,1.67
2023-11-23T18:20:54.256Z,4.05
2023-11-23T18:23:22.573Z,1.80
2023-11-23T18:25:50.012Z,3.53
2023-11-23T18:28:18.686Z,2.13
2023-11-23T18:30:45.889Z,2.65
2023-11-23T18:33:13.139Z,2.00
2023-11-23T18:35:40.372Z,1.88
2023-11-23T18:38:07.624Z,1.45
2023-11-23T18:40:34.833Z,2.00
2023-11-23T18:43:04.129Z,1.52
2023-11-23T18:45:35.139Z,1.55
2023-11-23T18:48:06.092Z,1.60
2023-11-23T18:50:33.365Z,1.67
2023-11-23T18:53:02.531Z,1.77
2023-11-23T18:55:30.430Z,1.83
2023-11-23T18:57:57.623Z,1.67
2023-11-23T19:00:25.157Z,2.13
2023-11-23T19:02:54.542Z,2.00
2023-11-23T19:05:21.838Z,2.83
2023-11-23T19:07:49.070Z,1.65
2023-11-23T19:10:17.073Z,2.53
2023-11-23T19:12:46.240Z,1.98
2023-11-23T19:15:13.600Z,2.20
2023-11-23T19:17:44.069Z,2.55
2023-11-23T19:20:11.947Z,4.03
2023-11-23T19:22:39.272Z,3.85
2023-11-23T19:25:08.155Z,5.70
2023-11-23T19:27:35.853Z,10.77
2023-11-23T19:30:06.675Z,8.93
2023-11-23T19:32:34.046Z,9.77
2023-11-23T19:35:01.546Z,22.25
2023-11-23T19:37:28.945Z,7.13
2023-11-23T19:39:57.368Z,6.68
2023-11-23T19:42:25.667Z,17.40
2023-11-23T19:44:53.376Z,11.75
2023-11-23T19:47:20.706Z,33.83
2023-11-23T19:49:48.955Z,13.35
2023-11-23T19:52:24.117Z,15.15
2023-11-23T19:54:52.269Z,10.93
2023-11-23T19:57:19.970Z,9.77
2023-11-23T19:59:47.519Z,11.18
2023-11-23T20:02:15.182Z,9.68
2023-11-23T20:04:42.854Z,6.43
2023-11-23T20:07:11.085Z,9.60
2023-11-23T20:09:41.431Z,9.15
2023-11-23T20:12:08.892Z,10.68
2023-11-23T20:14:37.975Z,6.72
2023-11-23T20:17:05.359Z,13.32
2023-11-23T20:19:33.462Z,10.40
2023-11-23T20:22:00.713Z,7.45
2023-11-23T20:24:27.911Z,12.15
2023-11-23T20:26:55.119Z,6.68
2023-11-23T20:29:22.396Z,6.70
2023-11-23T20:31:52.012Z,10.35
2023-11-23T20:34:19.832Z,6.55
2023-11-23T20:36:47.363Z,8.25
2023-11-23T20:39:16.454Z,6.38
2023-11-23T20:41:44.190Z,8.35
2023-11-23T20:44:11.434Z,8.32
2023-11-23T20:46:38.990Z,8.13
2023-11-23T20:49:06.276Z,6.60
2023-11-23T20:51:34.474Z,7.18
2023-11-23T20:54:01.690Z,7.38
2023-11-23T20:56:28.971Z,7.55
2023-11-23T20:58:56.197Z,7.00
2023-11-23T21:01:23.886Z,7.57
2023-11-23T21:03:51.546Z,6.50
2023-11-23T21:06:21.758Z,5.75
2023-11-23T21:08:49.607Z,5.57
2023-11-23T21:11:17.199Z,6.20
2023-11-23T21:13:44.326Z,5.60
2023-11-23T21:16:13.260Z,4.88
2023-11-23T21:18:40.867Z,5.93
2023-11-23T21:21:08.364Z,5.78
2023-11-23T21:23:37.642Z,4.72
2023-11-23T21:26:07.982Z,3.97
2023-11-23T21:28:35.682Z,4.88
2023-11-23T21:31:03.168Z,5.00
2023-11-23T21:33:30.672Z,5.28
2023-11-23T21:35:58.933Z,5.35
2023-11-23T21:38:26.391Z,5.00
2023-11-23T21:40:56.049Z,5.10
2023-11-23T21:43:23.607Z,5.22
2023-11-23T21:45:51.364Z,5.00
2023-11-23T21:48:18.678Z,5.20
2023-11-23T21:50:46.050Z,5.50
2023-11-23T21:53:14.345Z,4.85
2023-11-23T21:55:41.588Z,4.85
2023-11-23T21:58:08.868Z,4.55
2023-11-23T22:00:36.102Z,4.45
2023-11-23T22:03:03.763Z,4.50
2023-11-23T22:05:30.940Z,4.47
2023-11-23T22:07:58.917Z,5.07
2023-11-23T22:10:26.020Z,5.93
2023-11-23T22:12:53.225Z,5.57
2023-11-23T22:15:20.477Z,5.50
2023-11-23T22:17:47.919Z,5.72
2023-11-23T22:20:16.170Z,9.65
2023-11-23T22:22:43.618Z,20.98
2023-11-23T22:25:11.789Z,8.20
2023-11-23T22:27:40.473Z,5.32
2023-11-23T22:30:07.999Z,5.43
2023-11-23T22:32:36.207Z,5.28
2023-11-23T22:35:03.582Z,6.10
2023-11-23T22:37:31.352Z,6.43
2023-11-23T22:39:58.724Z,6.10
2023-11-23T22:42:26.145Z,5.63
2023-11-23T22:44:53.544Z,5.80
2023-11-23T22:47:22.401Z,5.35
2023-11-23T22:49:52.067Z,5.28
2023-11-23T22:52:20.186Z,5.20
2023-11-23T22:54:47.909Z,5.15
2023-11-23T22:57:15.152Z,4.38
2023-11-23T22:59:42.332Z,4.57
2023-11-23T23:02:09.703Z,3.97
2023-11-23T23:04:37.006Z,4.60
2023-11-23T23:07:06.990Z,3.17
2023-11-23T23:09:34.557Z,4.32
2023-11-23T23:12:01.863Z,3.67
2023-11-23T23:14:29.739Z,4.00
2023-11-23T23:16:57.583Z,3.47
2023-11-23T23:19:24.973Z,3.90
2023-11-23T23:21:52.314Z,3.45
2023-11-23T23:24:19.602Z,4.18
2023-11-23T23:26:46.842Z,3.50
2023-11-23T23:29:14.710Z,3.72
2023-11-23T23:31:42.851Z,3.83
2023-11-23T23:34:10.116Z,4.20
2023-11-23T23:36:37.393Z,3.70
2023-11-23T23:39:04.589Z,3.30
2023-11-23T23:41:32.610Z,3.38
2023-11-23T23:43:59.734Z,4.25
2023-11-23T23:46:26.893Z,3.90
2023-11-23T23:48:54.126Z,4.20
2023-11-23T23:51:21.306Z,4.00
2023-11-23T23:53:48.414Z,4.10
2023-11-23T23:56:15.587Z,3.67
2023-11-23T23:58:43.726Z,4.38
